PWSweather.com
Personal Weather Stations
Station Observations
UXOLA
Alcoy, AlcoyES

AlcoyAlcoyES

Lat: 38.70299, Lon: -0.48184

Elevation: 1935

Station Type: PCE FWS-20,

http://www.fiestasalcoy.xyz

High Low Average
Temperature 43.5°F6.4°C 39.2°F4.0°C 41.8°F5.4°C
Dew Point 39.0°F3.9°C 36.0°F2.2°C 38.1°F3.4°C
Winds 3.1 mph 5.0 kmh Calm Calm 1.0 mph ESE1.6 kmh ESE
Wind Gusts 4.5 mph7.2 kmh 0.7 mph1.1 kmh 4.0 mph6.4 kmh
Humidity 93% 83% 87%
Pressure 29.20 in988.8 mb 29.11 in985.8 mb -
Precipitation 0.08 in2.0 mm - -
Hour Temp Dew Point Humidity Winds Wind Gusts Pressure Precip Precip Rate Daily Precip Total
12:00 AM 39.4°F4.1°C 36.1°F2.3°C 88% Calm Calm 4.5 mph7.2 kmh 29.20 in988.8 mb 0.05 in1.3 mm 0.00 in0.0 mm 0.05 in1.3 mm
12:15 AM 39.4°F4.1°C 36.1°F2.3°C 88% 2.2 mph E3.5 kmh E 3.1 mph5.0 kmh 29.20 in988.8 mb 0.06 in1.5 mm 0.04 in1.0 mm 0.01 in0.3 mm
12:30 AM 39.2°F4.0°C 36.0°F2.2°C 88% 1.6 mph NE2.6 kmh NE 3.8 mph6.1 kmh 29.20 in988.8 mb 0.05 in1.3 mm 0.00 in0.0 mm 0.01 in0.3 mm
12:45 AM 39.2°F4.0°C 36.0°F2.2°C 88% 2.2 mph ENE3.5 kmh ENE 3.1 mph5.0 kmh 29.19 in988.5 mb 0.02 in0.5 mm 0.00 in0.0 mm 0.01 in0.3 mm
01:00 AM 39.2°F4.0°C 36.0°F2.2°C 88% 1.6 mph NE2.6 kmh NE 3.1 mph5.0 kmh 29.19 in988.5 mb 0.01 in0.3 mm 0.00 in0.0 mm 0.01 in0.3 mm
01:15 AM 39.2°F4.0°C 36.2°F2.3°C 89% 0.7 mph E1.1 kmh E 2.2 mph3.5 kmh 29.19 in988.5 mb 0.00 in0.0 mm 0.00 in0.0 mm 0.01 in0.3 mm
01:30 AM 39.4°F4.1°C 36.4°F2.4°C 89% 2.2 mph ENE3.5 kmh ENE 3.1 mph5.0 kmh 29.18 in988.1 mb 0.00 in0.0 mm 0.00 in0.0 mm 0.01 in0.3 mm
01:45 AM 39.2°F4.0°C 36.5°F2.5°C 90% 2.2 mph ENE3.5 kmh ENE 3.1 mph5.0 kmh 29.18 in988.1 mb 0.00 in0.0 mm 0.00 in0.0 mm 0.01 in0.3 mm
02:00 AM 39.4°F4.1°C 36.7°F2.6°C 90% 0.7 mph ENE1.1 kmh ENE 3.1 mph5.0 kmh 29.17 in987.8 mb 0.01 in0.3 mm 0.01 in0.3 mm 0.02 in0.5 mm
02:15 AM 39.4°F4.1°C 36.7°F2.6°C 90% Calm Calm 3.8 mph6.1 kmh 29.17 in987.8 mb 0.02 in0.5 mm 0.04 in1.0 mm 0.04 in1.0 mm
02:30 AM 39.4°F4.1°C 37.0°F2.8°C 91% 1.6 mph E2.6 kmh E 3.1 mph5.0 kmh 29.16 in987.5 mb 0.02 in0.5 mm 0.00 in0.0 mm 0.04 in1.0 mm
02:45 AM 39.4°F4.1°C 37.0°F2.8°C 91% Calm Calm 3.1 mph5.0 kmh 29.16 in987.5 mb 0.02 in0.5 mm 0.00 in0.0 mm 0.04 in1.0 mm
03:00 AM 39.6°F4.2°C 37.2°F2.9°C 91% 0.7 mph SW1.1 kmh SW 3.1 mph5.0 kmh 29.15 in987.1 mb 0.04 in1.0 mm 0.03 in0.8 mm 0.06 in1.5 mm
03:15 AM 39.2°F4.0°C 36.8°F2.7°C 91% 0.7 mph WSW1.1 kmh WSW 1.6 mph2.6 kmh 29.15 in987.1 mb 0.04 in1.0 mm 0.00 in0.0 mm 0.07 in1.8 mm
03:30 AM 39.4°F4.1°C 37.0°F2.8°C 91% Calm Calm 2.2 mph3.5 kmh 29.16 in987.5 mb 0.04 in1.0 mm 0.00 in0.0 mm 0.07 in1.8 mm
03:45 AM 39.6°F4.2°C 37.4°F3.0°C 92% 3.1 mph E5.0 kmh E 3.8 mph6.1 kmh 29.15 in987.1 mb 0.04 in1.0 mm 0.00 in0.0 mm 0.08 in2.0 mm
04:00 AM 39.2°F4.0°C 37.1°F2.8°C 92% 1.6 mph NE2.6 kmh NE 4.5 mph7.2 kmh 29.14 in986.8 mb 0.02 in0.5 mm 0.00 in0.0 mm 0.08 in2.0 mm
04:15 AM 39.2°F4.0°C 37.1°F2.8°C 92% 2.2 mph NE3.5 kmh NE 3.1 mph5.0 kmh 29.14 in986.8 mb 0.01 in0.3 mm 0.00 in0.0 mm 0.08 in2.0 mm
04:30 AM 39.2°F4.0°C 37.1°F2.8°C 92% 0.7 mph SW1.1 kmh SW 2.2 mph3.5 kmh 29.13 in986.5 mb 0.01 in0.3 mm 0.00 in0.0 mm 0.08 in2.0 mm
04:45 AM 39.2°F4.0°C 37.4°F3.0°C 93% 0.7 mph ENE1.1 kmh ENE 3.8 mph6.1 kmh 29.13 in986.5 mb 0.00 in0.0 mm 0.00 in0.0 mm 0.08 in2.0 mm
05:00 AM 39.2°F4.0°C 37.4°F3.0°C 93% 1.6 mph NNW2.6 kmh NNW 3.1 mph5.0 kmh 29.12 in986.1 mb 0.00 in0.0 mm 0.00 in0.0 mm 0.08 in2.0 mm
05:15 AM 39.2°F4.0°C 37.4°F3.0°C 93% 0.7 mph ENE1.1 kmh ENE 3.1 mph5.0 kmh 29.12 in986.1 mb 0.00 in0.0 mm 0.00 in0.0 mm 0.08 in2.0 mm
05:30 AM 39.4°F4.1°C 37.5°F3.1°C 93% 0.7 mph NE1.1 kmh NE 3.1 mph5.0 kmh 29.12 in986.1 mb 0.00 in0.0 mm 0.00 in0.0 mm 0.08 in2.0 mm
05:45 AM 39.6°F4.2°C 37.7°F3.2°C 93% 2.2 mph NE3.5 kmh NE 3.1 mph5.0 kmh 29.12 in986.1 mb 0.00 in0.0 mm 0.00 in0.0 mm 0.08 in2.0 mm
06:00 AM 39.6°F4.2°C 37.7°F3.2°C 93% 0.7 mph N1.1 kmh N 2.2 mph3.5 kmh 29.11 in985.8 mb 0.00 in0.0 mm 0.00 in0.0 mm 0.08 in2.0 mm
06:15 AM 39.6°F4.2°C 37.4°F3.0°C 92% 1.6 mph SW2.6 kmh SW 2.2 mph3.5 kmh 29.12 in986.1 mb 0.00 in0.0 mm 0.00 in0.0 mm 0.08 in2.0 mm
06:30 AM 39.4°F4.1°C 37.3°F2.9°C 92% Calm Calm 0.7 mph1.1 kmh 29.11 in985.8 mb 0.00 in0.0 mm 0.00 in0.0 mm 0.08 in2.0 mm
06:45 AM 39.2°F4.0°C 37.1°F2.8°C 92% Calm Calm 1.6 mph2.6 kmh 29.11 in985.8 mb 0.00 in0.0 mm 0.00 in0.0 mm 0.08 in2.0 mm
07:00 AM 39.2°F4.0°C 36.8°F2.7°C 91% 1.6 mph SW2.6 kmh SW 2.2 mph3.5 kmh 29.12 in986.1 mb 0.00 in0.0 mm 0.00 in0.0 mm 0.08 in2.0 mm
07:15 AM 39.4°F4.1°C 37.0°F2.8°C 91% 3.1 mph W5.0 kmh W 4.5 mph7.2 kmh 29.12 in986.1 mb 0.00 in0.0 mm 0.00 in0.0 mm 0.08 in2.0 mm
07:30 AM 39.6°F4.2°C 36.9°F2.7°C 90% 0.7 mph NW1.1 kmh NW 3.1 mph5.0 kmh 29.13 in986.5 mb 0.00 in0.0 mm 0.00 in0.0 mm 0.08 in2.0 mm
07:45 AM 39.9°F4.4°C 36.7°F2.6°C 88% 0.7 mph WSW1.1 kmh WSW 3.8 mph6.1 kmh 29.12 in986.1 mb 0.00 in0.0 mm 0.00 in0.0 mm 0.08 in2.0 mm
08:00 AM 40.1°F4.5°C 36.5°F2.5°C 87% 0.7 mph WNW1.1 kmh WNW 3.1 mph5.0 kmh 29.12 in986.1 mb 0.00 in0.0 mm 0.00 in0.0 mm 0.08 in2.0 mm
08:15 AM 40.3°F4.6°C 36.1°F2.3°C 85% 0.7 mph NE1.1 kmh NE 2.2 mph3.5 kmh 29.13 in986.5 mb 0.00 in0.0 mm 0.00 in0.0 mm 0.08 in2.0 mm
08:30 AM 40.3°F4.6°C 36.1°F2.3°C 85% Calm Calm 1.6 mph2.6 kmh 29.13 in986.5 mb 0.00 in0.0 mm 0.00 in0.0 mm 0.08 in2.0 mm
08:45 AM 40.5°F4.7°C 36.6°F2.6°C 86% Calm Calm 1.6 mph2.6 kmh 29.14 in986.8 mb 0.00 in0.0 mm 0.00 in0.0 mm 0.08 in2.0 mm
09:00 AM 40.5°F4.7°C 36.6°F2.6°C 86% 0.7 mph WSW1.1 kmh WSW 1.6 mph2.6 kmh 29.14 in986.8 mb 0.00 in0.0 mm 0.00 in0.0 mm 0.08 in2.0 mm
09:15 AM 40.6°F4.8°C 36.8°F2.7°C 86% Calm Calm 1.6 mph2.6 kmh 29.14 in986.8 mb 0.00 in0.0 mm 0.00 in0.0 mm 0.08 in2.0 mm
09:30 AM 40.8°F4.9°C 37.0°F2.8°C 86% 0.7 mph ENE1.1 kmh ENE 3.1 mph5.0 kmh 29.14 in986.8 mb 0.00 in0.0 mm 0.00 in0.0 mm 0.08 in2.0 mm
09:45 AM 41.4°F5.2°C 37.8°F3.2°C 87% 2.2 mph E3.5 kmh E 3.1 mph5.0 kmh 29.15 in987.1 mb 0.00 in0.0 mm 0.00 in0.0 mm 0.08 in2.0 mm
10:00 AM 41.5°F5.3°C 38.0°F3.3°C 87% Calm Calm 2.2 mph3.5 kmh 29.14 in986.8 mb 0.00 in0.0 mm 0.00 in0.0 mm 0.08 in2.0 mm
10:15 AM 41.9°F5.5°C 38.0°F3.3°C 86% 1.6 mph ENE2.6 kmh ENE 3.1 mph5.0 kmh 29.14 in986.8 mb 0.00 in0.0 mm 0.00 in0.0 mm 0.08 in2.0 mm
10:30 AM 42.1°F5.6°C 38.5°F3.6°C 87% 0.7 mph ENE1.1 kmh ENE 3.1 mph5.0 kmh 29.15 in987.1 mb 0.00 in0.0 mm 0.00 in0.0 mm 0.08 in2.0 mm
10:45 AM 42.3°F5.7°C 38.1°F3.4°C 85% Calm Calm 3.1 mph5.0 kmh 29.16 in987.5 mb 0.00 in0.0 mm 0.00 in0.0 mm 0.08 in2.0 mm
11:00 AM 43.3°F6.3°C 38.5°F3.6°C 83% 2.2 mph E3.5 kmh E 4.5 mph7.2 kmh 29.15 in987.1 mb 0.00 in0.0 mm 0.00 in0.0 mm 0.08 in2.0 mm
11:15 AM 43.5°F6.4°C 39.0°F3.9°C 84% 0.7 mph E1.1 kmh E 4.5 mph7.2 kmh 29.15 in987.1 mb 0.00 in0.0 mm 0.00 in0.0 mm 0.08 in2.0 mm
11:30 AM 43.5°F6.4°C 39.0°F3.9°C 84% 0.7 mph E1.1 kmh E 4.5 mph7.2 kmh 29.15 in987.1 mb 0.00 in0.0 mm 0.00 in0.0 mm 0.08 in2.0 mm
11:45 AM 43.5°F6.4°C 39.0°F3.9°C 84% 0.7 mph E1.1 kmh E 4.5 mph7.2 kmh 29.15 in987.1 mb 0.00 in0.0 mm 0.00 in0.0 mm 0.08 in2.0 mm
12:00 PM 43.5°F6.4°C 39.0°F3.9°C 84% 0.7 mph E1.1 kmh E 4.5 mph7.2 kmh 29.15 in987.1 mb 0.00 in0.0 mm 0.00 in0.0 mm 0.08 in2.0 mm
12:15 PM 43.5°F6.4°C 39.0°F3.9°C 84% 0.7 mph E1.1 kmh E 4.5 mph7.2 kmh 29.15 in987.1 mb 0.00 in0.0 mm 0.00 in0.0 mm 0.08 in2.0 mm
12:30 PM 43.5°F6.4°C 39.0°F3.9°C 84% 0.7 mph E1.1 kmh E 4.5 mph7.2 kmh 29.15 in987.1 mb 0.00 in0.0 mm 0.00 in0.0 mm 0.08 in2.0 mm
12:45 PM 43.5°F6.4°C 39.0°F3.9°C 84% 0.7 mph E1.1 kmh E 4.5 mph7.2 kmh 29.15 in987.1 mb 0.00 in0.0 mm 0.00 in0.0 mm 0.08 in2.0 mm
01:00 PM 43.5°F6.4°C 39.0°F3.9°C 84% 0.7 mph E1.1 kmh E 4.5 mph7.2 kmh 29.15 in987.1 mb 0.00 in0.0 mm 0.00 in0.0 mm 0.08 in2.0 mm
01:15 PM 43.5°F6.4°C 39.0°F3.9°C 84% 0.7 mph E1.1 kmh E 4.5 mph7.2 kmh 29.15 in987.1 mb 0.00 in0.0 mm 0.00 in0.0 mm 0.08 in2.0 mm
01:30 PM 43.5°F6.4°C 39.0°F3.9°C 84% 0.7 mph E1.1 kmh E 4.5 mph7.2 kmh 29.15 in987.1 mb 0.00 in0.0 mm 0.00 in0.0 mm 0.08 in2.0 mm
01:45 PM 43.5°F6.4°C 39.0°F3.9°C 84% 0.7 mph E1.1 kmh E 4.5 mph7.2 kmh 29.15 in987.1 mb 0.00 in0.0 mm 0.00 in0.0 mm 0.08 in2.0 mm
02:00 PM 43.5°F6.4°C 39.0°F3.9°C 84% 0.7 mph E1.1 kmh E 4.5 mph7.2 kmh 29.15 in987.1 mb 0.00 in0.0 mm 0.00 in0.0 mm 0.08 in2.0 mm
02:15 PM 43.5°F6.4°C 39.0°F3.9°C 84% 0.7 mph E1.1 kmh E 4.5 mph7.2 kmh 29.15 in987.1 mb 0.00 in0.0 mm 0.00 in0.0 mm 0.08 in2.0 mm
02:30 PM 43.5°F6.4°C 39.0°F3.9°C 84% 0.7 mph E1.1 kmh E 4.5 mph7.2 kmh 29.15 in987.1 mb 0.00 in0.0 mm 0.00 in0.0 mm 0.08 in2.0 mm
02:45 PM 43.5°F6.4°C 39.0°F3.9°C 84% 0.7 mph E1.1 kmh E 4.5 mph7.2 kmh 29.15 in987.1 mb 0.00 in0.0 mm 0.00 in0.0 mm 0.08 in2.0 mm
03:00 PM 43.5°F6.4°C 39.0°F3.9°C 84% 0.7 mph E1.1 kmh E 4.5 mph7.2 kmh 29.15 in987.1 mb 0.00 in0.0 mm 0.00 in0.0 mm 0.08 in2.0 mm
03:15 PM 43.5°F6.4°C 39.0°F3.9°C 84% 0.7 mph E1.1 kmh E 4.5 mph7.2 kmh 29.15 in987.1 mb 0.00 in0.0 mm 0.00 in0.0 mm 0.08 in2.0 mm
03:30 PM 43.5°F6.4°C 39.0°F3.9°C 84% 0.7 mph E1.1 kmh E 4.5 mph7.2 kmh 29.15 in987.1 mb 0.00 in0.0 mm 0.00 in0.0 mm 0.08 in2.0 mm
03:45 PM 43.5°F6.4°C 39.0°F3.9°C 84% 0.7 mph E1.1 kmh E 4.5 mph7.2 kmh 29.15 in987.1 mb 0.00 in0.0 mm 0.00 in0.0 mm 0.08 in2.0 mm
04:00 PM 43.5°F6.4°C 39.0°F3.9°C 84% 0.7 mph E1.1 kmh E 4.5 mph7.2 kmh 29.15 in987.1 mb 0.00 in0.0 mm 0.00 in0.0 mm 0.08 in2.0 mm
04:15 PM 43.5°F6.4°C 39.0°F3.9°C 84% 0.7 mph E1.1 kmh E 4.5 mph7.2 kmh 29.15 in987.1 mb 0.00 in0.0 mm 0.00 in0.0 mm 0.08 in2.0 mm
04:30 PM 43.5°F6.4°C 39.0°F3.9°C 84% 0.7 mph E1.1 kmh E 4.5 mph7.2 kmh 29.15 in987.1 mb 0.00 in0.0 mm 0.00 in0.0 mm 0.08 in2.0 mm
04:45 PM 43.5°F6.4°C 39.0°F3.9°C 84% 0.7 mph E1.1 kmh E 4.5 mph7.2 kmh 29.15 in987.1 mb 0.00 in0.0 mm 0.00 in0.0 mm 0.08 in2.0 mm
05:00 PM 43.5°F6.4°C 39.0°F3.9°C 84% 0.7 mph E1.1 kmh E 4.5 mph7.2 kmh 29.15 in987.1 mb 0.00 in0.0 mm 0.00 in0.0 mm 0.08 in2.0 mm
05:15 PM 43.5°F6.4°C 39.0°F3.9°C 84% 0.7 mph E1.1 kmh E 4.5 mph7.2 kmh 29.15 in987.1 mb 0.00 in0.0 mm 0.00 in0.0 mm 0.08 in2.0 mm
05:30 PM 43.5°F6.4°C 39.0°F3.9°C 84% 0.7 mph E1.1 kmh E 4.5 mph7.2 kmh 29.15 in987.1 mb 0.00 in0.0 mm 0.00 in0.0 mm 0.08 in2.0 mm
05:45 PM 43.5°F6.4°C 39.0°F3.9°C 84% 0.7 mph E1.1 kmh E 4.5 mph7.2 kmh 29.15 in987.1 mb 0.00 in0.0 mm 0.00 in0.0 mm 0.08 in2.0 mm
06:00 PM 43.5°F6.4°C 39.0°F3.9°C 84% 0.7 mph E1.1 kmh E 4.5 mph7.2 kmh 29.15 in987.1 mb 0.00 in0.0 mm 0.00 in0.0 mm 0.08 in2.0 mm
06:15 PM 43.5°F6.4°C 39.0°F3.9°C 84% 0.7 mph E1.1 kmh E 4.5 mph7.2 kmh 29.15 in987.1 mb 0.00 in0.0 mm 0.00 in0.0 mm 0.08 in2.0 mm
06:30 PM 43.5°F6.4°C 39.0°F3.9°C 84% 0.7 mph E1.1 kmh E 4.5 mph7.2 kmh 29.15 in987.1 mb 0.00 in0.0 mm 0.00 in0.0 mm 0.08 in2.0 mm
06:45 PM 43.5°F6.4°C 39.0°F3.9°C 84% 0.7 mph E1.1 kmh E 4.5 mph7.2 kmh 29.15 in987.1 mb 0.00 in0.0 mm 0.00 in0.0 mm 0.08 in2.0 mm
07:00 PM 43.5°F6.4°C 39.0°F3.9°C 84% 0.7 mph E1.1 kmh E 4.5 mph7.2 kmh 29.15 in987.1 mb 0.00 in0.0 mm 0.00 in0.0 mm 0.08 in2.0 mm
07:15 PM 43.5°F6.4°C 39.0°F3.9°C 84% 0.7 mph E1.1 kmh E 4.5 mph7.2 kmh 29.15 in987.1 mb 0.00 in0.0 mm 0.00 in0.0 mm 0.08 in2.0 mm
07:30 PM 43.5°F6.4°C 39.0°F3.9°C 84% 0.7 mph E1.1 kmh E 4.5 mph7.2 kmh 29.15 in987.1 mb 0.00 in0.0 mm 0.00 in0.0 mm 0.08 in2.0 mm
07:45 PM 43.5°F6.4°C 39.0°F3.9°C 84% 0.7 mph E1.1 kmh E 4.5 mph7.2 kmh 29.15 in987.1 mb 0.00 in0.0 mm 0.00 in0.0 mm 0.08 in2.0 mm
08:00 PM 43.5°F6.4°C 39.0°F3.9°C 84% 0.7 mph E1.1 kmh E 4.5 mph7.2 kmh 29.15 in987.1 mb 0.00 in0.0 mm 0.00 in0.0 mm 0.08 in2.0 mm
08:15 PM 43.5°F6.4°C 39.0°F3.9°C 84% 0.7 mph E1.1 kmh E 4.5 mph7.2 kmh 29.15 in987.1 mb 0.00 in0.0 mm 0.00 in0.0 mm 0.08 in2.0 mm
08:30 PM 43.5°F6.4°C 39.0°F3.9°C 84% 0.7 mph E1.1 kmh E 4.5 mph7.2 kmh 29.15 in987.1 mb 0.00 in0.0 mm 0.00 in0.0 mm 0.08 in2.0 mm
08:45 PM 43.5°F6.4°C 39.0°F3.9°C 84% 0.7 mph E1.1 kmh E 4.5 mph7.2 kmh 29.15 in987.1 mb 0.00 in0.0 mm 0.00 in0.0 mm 0.08 in2.0 mm
09:00 PM 43.5°F6.4°C 39.0°F3.9°C 84% 0.7 mph E1.1 kmh E 4.5 mph7.2 kmh 29.15 in987.1 mb 0.00 in0.0 mm 0.00 in0.0 mm 0.08 in2.0 mm
09:15 PM 43.5°F6.4°C 39.0°F3.9°C 84% 0.7 mph E1.1 kmh E 4.5 mph7.2 kmh 29.15 in987.1 mb 0.00 in0.0 mm 0.00 in0.0 mm 0.08 in2.0 mm
09:30 PM 43.5°F6.4°C 39.0°F3.9°C 84% 0.7 mph E1.1 kmh E 4.5 mph7.2 kmh 29.15 in987.1 mb 0.00 in0.0 mm 0.00 in0.0 mm 0.08 in2.0 mm
09:45 PM 43.5°F6.4°C 39.0°F3.9°C 84% 0.7 mph E1.1 kmh E 4.5 mph7.2 kmh 29.15 in987.1 mb 0.00 in0.0 mm 0.00 in0.0 mm 0.08 in2.0 mm
10:00 PM 43.5°F6.4°C 39.0°F3.9°C 84% 0.7 mph E1.1 kmh E 4.5 mph7.2 kmh 29.15 in987.1 mb 0.00 in0.0 mm 0.00 in0.0 mm 0.08 in2.0 mm
10:15 PM 43.5°F6.4°C 39.0°F3.9°C 84% 0.7 mph E1.1 kmh E 4.5 mph7.2 kmh 29.15 in987.1 mb 0.00 in0.0 mm 0.00 in0.0 mm 0.08 in2.0 mm
10:30 PM 43.5°F6.4°C 39.0°F3.9°C 84% 0.7 mph E1.1 kmh E 4.5 mph7.2 kmh 29.15 in987.1 mb 0.00 in0.0 mm 0.00 in0.0 mm 0.08 in2.0 mm
10:45 PM 43.5°F6.4°C 39.0°F3.9°C 84% 0.7 mph E1.1 kmh E 4.5 mph7.2 kmh 29.15 in987.1 mb 0.00 in0.0 mm 0.00 in0.0 mm 0.08 in2.0 mm
11:00 PM 43.5°F6.4°C 39.0°F3.9°C 84% 0.7 mph E1.1 kmh E 4.5 mph7.2 kmh 29.15 in987.1 mb 0.00 in0.0 mm 0.00 in0.0 mm 0.08 in2.0 mm
11:15 PM 43.5°F6.4°C 39.0°F3.9°C 84% 0.7 mph E1.1 kmh E 4.5 mph7.2 kmh 29.15 in987.1 mb 0.00 in0.0 mm 0.00 in0.0 mm 0.08 in2.0 mm
11:30 PM 43.5°F6.4°C 39.0°F3.9°C 84% 0.7 mph E1.1 kmh E 4.5 mph7.2 kmh 29.15 in987.1 mb 0.00 in0.0 mm 0.00 in0.0 mm 0.08 in2.0 mm
11:45 PM 43.5°F6.4°C 39.0°F3.9°C 84% 0.7 mph E1.1 kmh E 4.5 mph7.2 kmh 29.15 in987.1 mb 0.00 in0.0 mm 0.00 in0.0 mm 0.08 in2.0 mm